sensor_id;sensor_type;location;lat;lon;timestamp;P1;durP1;ratioP1;P2;durP2;ratioP2
40459;SDS011;26164;51.138;16.952;2023-04-15T00:00:03;81.30;;;43.97;;
40459;SDS011;26164;51.138;16.952;2023-04-15T00:02:58;64.60;;;36.92;;
40459;SDS011;26164;51.138;16.952;2023-04-15T00:05:24;52.83;;;31.40;;
40459;SDS011;26164;51.138;16.952;2023-04-15T00:07:49;45.58;;;25.98;;
40459;SDS011;26164;51.138;16.952;2023-04-15T00:10:15;32.25;;;19.52;;
40459;SDS011;26164;51.138;16.952;2023-04-15T00:12:41;27.30;;;19.38;;
40459;SDS011;26164;51.138;16.952;2023-04-15T00:15:07;29.88;;;19.67;;
40459;SDS011;26164;51.138;16.952;2023-04-15T00:17:33;26.70;;;17.75;;
40459;SDS011;26164;51.138;16.952;2023-04-15T00:19:59;21.63;;;15.65;;
40459;SDS011;26164;51.138;16.952;2023-04-15T00:22:28;24.15;;;15.80;;
40459;SDS011;26164;51.138;16.952;2023-04-15T00:24:53;29.52;;;15.68;;
40459;SDS011;26164;51.138;16.952;2023-04-15T00:27:19;22.60;;;15.93;;
40459;SDS011;26164;51.138;16.952;2023-04-15T00:29:45;21.50;;;14.93;;
40459;SDS011;26164;51.138;16.952;2023-04-15T00:32:11;20.42;;;14.23;;
40459;SDS011;26164;51.138;16.952;2023-04-15T00:34:39;27.05;;;13.98;;
40459;SDS011;26164;51.138;16.952;2023-04-15T00:37:06;20.55;;;14.23;;
40459;SDS011;26164;51.138;16.952;2023-04-15T00:39:32;20.98;;;13.75;;
40459;SDS011;26164;51.138;16.952;2023-04-15T00:41:58;22.27;;;13.73;;
40459;SDS011;26164;51.138;16.952;2023-04-15T00:44:24;22.38;;;13.18;;
40459;SDS011;26164;51.138;16.952;2023-04-15T00:46:50;21.10;;;13.20;;
40459;SDS011;26164;51.138;16.952;2023-04-15T00:49:16;21.65;;;13.38;;
40459;SDS011;26164;51.138;16.952;2023-04-15T00:51:44;23.52;;;13.40;;
40459;SDS011;26164;51.138;16.952;2023-04-15T00:54:11;19.50;;;13.43;;
40459;SDS011;26164;51.138;16.952;2023-04-15T00:56:37;19.45;;;13.43;;
40459;SDS011;26164;51.138;16.952;2023-04-15T00:59:04;22.38;;;13.65;;
40459;SDS011;26164;51.138;16.952;2023-04-15T01:01:30;20.10;;;13.15;;
40459;SDS011;26164;51.138;16.952;2023-04-15T01:03:58;23.17;;;13.88;;
40459;SDS011;26164;51.138;16.952;2023-04-15T01:06:23;23.30;;;13.30;;
40459;SDS011;26164;51.138;16.952;2023-04-15T01:08:49;19.20;;;12.70;;
40459;SDS011;26164;51.138;16.952;2023-04-15T01:11:15;21.70;;;13.30;;
40459;SDS011;26164;51.138;16.952;2023-04-15T01:13:41;21.65;;;13.57;;
40459;SDS011;26164;51.138;16.952;2023-04-15T01:16:07;19.40;;;13.23;;
40459;SDS011;26164;51.138;16.952;2023-04-15T01:18:33;20.08;;;13.68;;
40459;SDS011;26164;51.138;16.952;2023-04-15T01:20:59;19.13;;;12.85;;
40459;SDS011;26164;51.138;16.952;2023-04-15T01:23:26;19.80;;;12.32;;
40459;SDS011;26164;51.138;16.952;2023-04-15T01:25:52;18.00;;;12.25;;
40459;SDS011;26164;51.138;16.952;2023-04-15T01:28:18;18.80;;;13.27;;
40459;SDS011;26164;51.138;16.952;2023-04-15T01:30:44;20.85;;;13.07;;
40459;SDS011;26164;51.138;16.952;2023-04-15T01:33:10;24.05;;;13.00;;
40459;SDS011;26164;51.138;16.952;2023-04-15T01:35:37;19.05;;;11.90;;
40459;SDS011;26164;51.138;16.952;2023-04-15T01:38:06;20.58;;;13.32;;
40459;SDS011;26164;51.138;16.952;2023-04-15T01:40:33;18.58;;;12.18;;
40459;SDS011;26164;51.138;16.952;2023-04-15T01:42:58;19.20;;;13.38;;
40459;SDS011;26164;51.138;16.952;2023-04-15T01:45:24;18.52;;;12.30;;
40459;SDS011;26164;51.138;16.952;2023-04-15T01:47:50;18.30;;;12.68;;
40459;SDS011;26164;51.138;16.952;2023-04-15T01:50:18;19.05;;;12.70;;
40459;SDS011;26164;51.138;16.952;2023-04-15T01:52:45;16.95;;;12.15;;
40459;SDS011;26164;51.138;16.952;2023-04-15T01:55:11;21.88;;;12.15;;
40459;SDS011;26164;51.138;16.952;2023-04-15T01:57:37;17.80;;;12.73;;
40459;SDS011;26164;51.138;16.952;2023-04-15T02:00:03;18.60;;;12.85;;
40459;SDS011;26164;51.138;16.952;2023-04-15T02:02:39;16.30;;;11.80;;
40459;SDS011;26164;51.138;16.952;2023-04-15T02:05:04;16.92;;;12.13;;
40459;SDS011;26164;51.138;16.952;2023-04-15T02:07:30;22.08;;;11.95;;
40459;SDS011;26164;51.138;16.952;2023-04-15T02:09:56;18.92;;;12.35;;
40459;SDS011;26164;51.138;16.952;2023-04-15T02:12:22;20.90;;;12.98;;
40459;SDS011;26164;51.138;16.952;2023-04-15T02:14:48;17.10;;;11.60;;
40459;SDS011;26164;51.138;16.952;2023-04-15T02:17:14;21.65;;;12.40;;
40459;SDS011;26164;51.138;16.952;2023-04-15T02:19:42;17.92;;;12.60;;
40459;SDS011;26164;51.138;16.952;2023-04-15T02:22:07;22.05;;;12.82;;
40459;SDS011;26164;51.138;16.952;2023-04-15T02:24:33;17.73;;;12.50;;
40459;SDS011;26164;51.138;16.952;2023-04-15T02:26:59;19.42;;;12.50;;
40459;SDS011;26164;51.138;16.952;2023-04-15T02:29:26;17.98;;;12.30;;
40459;SDS011;26164;51.138;16.952;2023-04-15T02:31:51;19.75;;;11.93;;
40459;SDS011;26164;51.138;16.952;2023-04-15T02:34:17;18.23;;;12.40;;
40459;SDS011;26164;51.138;16.952;2023-04-15T02:36:44;20.48;;;13.40;;
40459;SDS011;26164;51.138;16.952;2023-04-15T02:39:11;19.45;;;13.38;;
40459;SDS011;26164;51.138;16.952;2023-04-15T02:41:39;19.98;;;13.77;;
40459;SDS011;26164;51.138;16.952;2023-04-15T02:44:04;22.55;;;14.20;;
40459;SDS011;26164;51.138;16.952;2023-04-15T02:46:31;21.73;;;14.13;;
40459;SDS011;26164;51.138;16.952;2023-04-15T02:48:57;22.77;;;14.88;;
40459;SDS011;26164;51.138;16.952;2023-04-15T02:51:24;23.35;;;15.35;;
40459;SDS011;26164;51.138;16.952;2023-04-15T02:53:50;22.65;;;15.32;;
40459;SDS011;26164;51.138;16.952;2023-04-15T02:56:16;21.20;;;14.95;;
40459;SDS011;26164;51.138;16.952;2023-04-15T02:58:43;24.40;;;15.80;;
40459;SDS011;26164;51.138;16.952;2023-04-15T03:01:10;24.13;;;16.10;;
40459;SDS011;26164;51.138;16.952;2023-04-15T03:03:36;22.00;;;15.45;;
40459;SDS011;26164;51.138;16.952;2023-04-15T03:06:02;22.92;;;16.10;;
40459;SDS011;26164;51.138;16.952;2023-04-15T03:08:27;29.30;;;17.42;;
40459;SDS011;26164;51.138;16.952;2023-04-15T03:10:56;27.05;;;16.80;;
40459;SDS011;26164;51.138;16.952;2023-04-15T03:13:22;24.48;;;17.00;;
40459;SDS011;26164;51.138;16.952;2023-04-15T03:15:49;27.27;;;17.23;;
40459;SDS011;26164;51.138;16.952;2023-04-15T03:18:15;28.17;;;18.48;;
40459;SDS011;26164;51.138;16.952;2023-04-15T03:20:41;27.55;;;17.75;;
40459;SDS011;26164;51.138;16.952;2023-04-15T03:23:09;28.77;;;16.13;;
40459;SDS011;26164;51.138;16.952;2023-04-15T03:25:35;27.98;;;17.08;;
40459;SDS011;26164;51.138;16.952;2023-04-15T03:28:02;28.33;;;17.02;;
40459;SDS011;26164;51.138;16.952;2023-04-15T03:30:28;30.10;;;17.60;;
40459;SDS011;26164;51.138;16.952;2023-04-15T03:32:54;26.52;;;17.60;;
40459;SDS011;26164;51.138;16.952;2023-04-15T03:35:19;27.77;;;18.33;;
40459;SDS011;26164;51.138;16.952;2023-04-15T03:37:45;28.48;;;17.77;;
40459;SDS011;26164;51.138;16.952;2023-04-15T03:40:13;27.98;;;19.08;;
40459;SDS011;26164;51.138;16.952;2023-04-15T03:42:39;28.17;;;18.52;;
40459;SDS011;26164;51.138;16.952;2023-04-15T03:45:05;26.33;;;16.67;;
40459;SDS011;26164;51.138;16.952;2023-04-15T03:47:31;25.08;;;17.52;;
40459;SDS011;26164;51.138;16.952;2023-04-15T03:49:57;27.75;;;17.55;;
40459;SDS011;26164;51.138;16.952;2023-04-15T03:52:23;27.42;;;16.63;;
40459;SDS011;26164;51.138;16.952;2023-04-15T03:54:49;26.02;;;15.23;;
40459;SDS011;26164;51.138;16.952;2023-04-15T03:57:14;21.52;;;15.05;;
40459;SDS011;26164;51.138;16.952;2023-04-15T03:59:42;22.77;;;13.75;;
40459;SDS011;26164;51.138;16.952;2023-04-15T04:02:08;20.95;;;13.93;;
40459;SDS011;26164;51.138;16.952;2023-04-15T04:04:34;23.52;;;12.55;;
40459;SDS011;26164;51.138;16.952;2023-04-15T04:06:59;18.45;;;12.60;;
40459;SDS011;26164;51.138;16.952;2023-04-15T04:09:26;20.05;;;11.18;;
40459;SDS011;26164;51.138;16.952;2023-04-15T04:11:52;14.30;;;9.63;;
40459;SDS011;26164;51.138;16.952;2023-04-15T04:14:18;12.57;;;8.27;;
40459;SDS011;26164;51.138;16.952;2023-04-15T04:16:43;11.45;;;7.72;;
40459;SDS011;26164;51.138;16.952;2023-04-15T04:19:13;12.48;;;7.38;;
40459;SDS011;26164;51.138;16.952;2023-04-15T04:21:40;8.15;;;5.72;;
40459;SDS011;26164;51.138;16.952;2023-04-15T04:24:08;6.82;;;4.53;;
40459;SDS011;26164;51.138;16.952;2023-04-15T04:26:35;6.32;;;4.07;;
40459;SDS011;26164;51.138;16.952;2023-04-15T04:29:02;4.75;;;3.50;;
40459;SDS011;26164;51.138;16.952;2023-04-15T04:31:27;5.32;;;3.15;;
40459;SDS011;26164;51.138;16.952;2023-04-15T04:33:54;7.65;;;3.35;;
40459;SDS011;26164;51.138;16.952;2023-04-15T04:36:19;4.22;;;2.85;;
40459;SDS011;26164;51.138;16.952;2023-04-15T04:38:46;6.75;;;3.10;;
40459;SDS011;26164;51.138;16.952;2023-04-15T04:41:11;3.00;;;2.50;;
40459;SDS011;26164;51.138;16.952;2023-04-15T04:43:39;4.10;;;2.25;;
40459;SDS011;26164;51.138;16.952;2023-04-15T04:46:04;2.97;;;2.15;;
40459;SDS011;26164;51.138;16.952;2023-04-15T04:48:30;4.35;;;2.30;;
40459;SDS011;26164;51.138;16.952;2023-04-15T04:50:58;3.58;;;2.10;;
40459;SDS011;26164;51.138;16.952;2023-04-15T04:53:24;4.78;;;2.58;;
40459;SDS011;26164;51.138;16.952;2023-04-15T04:55:50;4.72;;;2.88;;
40459;SDS011;26164;51.138;16.952;2023-04-15T04:58:16;4.55;;;2.83;;
40459;SDS011;26164;51.138;16.952;2023-04-15T05:00:42;3.60;;;2.30;;
40459;SDS011;26164;51.138;16.952;2023-04-15T05:03:08;3.15;;;2.15;;
40459;SDS011;26164;51.138;16.952;2023-04-15T05:05:34;5.15;;;2.47;;
40459;SDS011;26164;51.138;16.952;2023-04-15T05:30:48;2.13;;;1.30;;
40459;SDS011;26164;51.138;16.952;2023-04-15T05:33:26;2.42;;;1.20;;
40459;SDS011;26164;51.138;16.952;2023-04-15T05:35:52;2.35;;;1.27;;
40459;SDS011;26164;51.138;16.952;2023-04-15T05:38:18;2.00;;;1.20;;
40459;SDS011;26164;51.138;16.952;2023-04-15T05:40:43;2.13;;;1.10;;
40459;SDS011;26164;51.138;16.952;2023-04-15T05:43:10;1.48;;;0.85;;
40459;SDS011;26164;51.138;16.952;2023-04-15T05:45:35;2.15;;;1.20;;
40459;SDS011;26164;51.138;16.952;2023-04-15T05:48:01;2.22;;;1.20;;
40459;SDS011;26164;51.138;16.952;2023-04-15T05:50:27;2.85;;;1.17;;
40459;SDS011;26164;51.138;16.952;2023-04-15T05:52:53;4.22;;;1.50;;
40459;SDS011;26164;51.138;16.952;2023-04-15T05:55:19;2.58;;;1.33;;
40459;SDS011;26164;51.138;16.952;2023-04-15T05:57:45;3.67;;;1.58;;
40459;SDS011;26164;51.138;16.952;2023-04-15T06:00:10;6.75;;;2.28;;
40459;SDS011;26164;51.138;16.952;2023-04-15T06:02:37;5.90;;;1.92;;
40459;SDS011;26164;51.138;16.952;2023-04-15T06:05:03;5.85;;;2.20;;
40459;SDS011;26164;51.138;16.952;2023-04-15T06:07:30;4.78;;;2.30;;
40459;SDS011;26164;51.138;16.952;2023-04-15T06:09:56;5.57;;;2.38;;
40459;SDS011;26164;51.138;16.952;2023-04-15T06:12:23;6.63;;;2.70;;
40459;SDS011;26164;51.138;16.952;2023-04-15T06:14:49;5.07;;;1.90;;
40459;SDS011;26164;51.138;16.952;2023-04-15T06:17:30;8.27;;;2.58;;
40459;SDS011;26164;51.138;16.952;2023-04-15T06:19:56;4.57;;;1.80;;
40459;SDS011;26164;51.138;16.952;2023-04-15T06:22:22;5.28;;;2.03;;
40459;SDS011;26164;51.138;16.952;2023-04-15T06:24:48;8.50;;;2.35;;
40459;SDS011;26164;51.138;16.952;2023-04-15T06:27:15;7.25;;;2.10;;
40459;SDS011;26164;51.138;16.952;2023-04-15T06:29:41;6.13;;;2.05;;
40459;SDS011;26164;51.138;16.952;2023-04-15T06:32:06;7.07;;;2.10;;
40459;SDS011;26164;51.138;16.952;2023-04-15T06:34:32;5.38;;;1.90;;
40459;SDS011;26164;51.138;16.952;2023-04-15T06:36:57;6.03;;;2.10;;
40459;SDS011;26164;51.138;16.952;2023-04-15T06:39:23;7.57;;;3.00;;
40459;SDS011;26164;51.138;16.952;2023-04-15T06:41:49;4.00;;;1.67;;
40459;SDS011;26164;51.138;16.952;2023-04-15T06:44:15;3.80;;;1.35;;
40459;SDS011;26164;51.138;16.952;2023-04-15T06:46:41;3.22;;;1.42;;
40459;SDS011;26164;51.138;16.952;2023-04-15T06:49:07;2.17;;;0.80;;
40459;SDS011;26164;51.138;16.952;2023-04-15T06:51:33;1.60;;;0.70;;
40459;SDS011;26164;51.138;16.952;2023-04-15T06:53:59;3.03;;;0.80;;
40459;SDS011;26164;51.138;16.952;2023-04-15T06:56:25;4.95;;;1.20;;
40459;SDS011;26164;51.138;16.952;2023-04-15T06:58:50;3.05;;;1.02;;
40459;SDS011;26164;51.138;16.952;2023-04-15T07:01:16;3.15;;;1.20;;
40459;SDS011;26164;51.138;16.952;2023-04-15T07:03:42;2.63;;;0.90;;
40459;SDS011;26164;51.138;16.952;2023-04-15T07:06:08;4.15;;;0.85;;
40459;SDS011;26164;51.138;16.952;2023-04-15T07:08:34;3.25;;;0.90;;
40459;SDS011;26164;51.138;16.952;2023-04-15T07:11:00;2.13;;;1.00;;
40459;SDS011;26164;51.138;16.952;2023-04-15T07:13:29;2.88;;;1.13;;
40459;SDS011;26164;51.138;16.952;2023-04-15T07:15:55;2.72;;;0.75;;
40459;SDS011;26164;51.138;16.952;2023-04-15T07:18:21;3.15;;;0.80;;
40459;SDS011;26164;51.138;16.952;2023-04-15T07:20:47;1.73;;;0.70;;
40459;SDS011;26164;51.138;16.952;2023-04-15T07:23:13;3.20;;;1.00;;
40459;SDS011;26164;51.138;16.952;2023-04-15T07:25:39;7.43;;;1.98;;
40459;SDS011;26164;51.138;16.952;2023-04-15T07:28:05;7.20;;;2.25;;
40459;SDS011;26164;51.138;16.952;2023-04-15T07:30:30;3.05;;;0.82;;
40459;SDS011;26164;51.138;16.952;2023-04-15T07:33:05;2.17;;;0.60;;
40459;SDS011;26164;51.138;16.952;2023-04-15T07:35:34;1.38;;;0.30;;
40459;SDS011;26164;51.138;16.952;2023-04-15T07:38:01;0.50;;;0.10;;
40459;SDS011;26164;51.138;16.952;2023-04-15T07:40:27;4.22;;;0.22;;
40459;SDS011;26164;51.138;16.952;2023-04-15T07:42:52;0.43;;;0.20;;
40459;SDS011;26164;51.138;16.952;2023-04-15T07:45:18;1.17;;;0.45;;
40459;SDS011;26164;51.138;16.952;2023-04-15T07:47:44;3.60;;;0.50;;
40459;SDS011;26164;51.138;16.952;2023-04-15T07:50:10;0.70;;;0.20;;
40459;SDS011;26164;51.138;16.952;2023-04-15T07:52:36;1.27;;;0.40;;
40459;SDS011;26164;51.138;16.952;2023-04-15T07:55:06;1.13;;;0.40;;
40459;SDS011;26164;51.138;16.952;2023-04-15T07:57:36;1.40;;;0.60;;
40459;SDS011;26164;51.138;16.952;2023-04-15T08:00:02;1.70;;;0.47;;
40459;SDS011;26164;51.138;16.952;2023-04-15T08:02:38;2.00;;;0.40;;
40459;SDS011;26164;51.138;16.952;2023-04-15T08:05:04;1.30;;;0.60;;
40459;SDS011;26164;51.138;16.952;2023-04-15T08:07:30;2.75;;;0.63;;
40459;SDS011;26164;51.138;16.952;2023-04-15T08:09:56;3.97;;;0.77;;
40459;SDS011;26164;51.138;16.952;2023-04-15T08:12:22;1.77;;;0.70;;
40459;SDS011;26164;51.138;16.952;2023-04-15T08:14:48;1.58;;;0.45;;
40459;SDS011;26164;51.138;16.952;2023-04-15T08:17:14;4.28;;;0.70;;
40459;SDS011;26164;51.138;16.952;2023-04-15T08:19:39;3.17;;;0.90;;
40459;SDS011;26164;51.138;16.952;2023-04-15T08:22:07;1.77;;;0.60;;
40459;SDS011;26164;51.138;16.952;2023-04-15T08:24:32;3.38;;;0.63;;
40459;SDS011;26164;51.138;16.952;2023-04-15T08:26:58;2.03;;;0.63;;
40459;SDS011;26164;51.138;16.952;2023-04-15T08:29:25;1.55;;;0.60;;
40459;SDS011;26164;51.138;16.952;2023-04-15T08:31:52;2.35;;;0.80;;
40459;SDS011;26164;51.138;16.952;2023-04-15T08:34:18;1.98;;;0.65;;
40459;SDS011;26164;51.138;16.952;2023-04-15T08:36:44;1.27;;;0.45;;
40459;SDS011;26164;51.138;16.952;2023-04-15T08:39:09;1.08;;;0.30;;
40459;SDS011;26164;51.138;16.952;2023-04-15T08:41:46;1.63;;;0.40;;
40459;SDS011;26164;51.138;16.952;2023-04-15T08:44:12;1.98;;;0.30;;
40459;SDS011;26164;51.138;16.952;2023-04-15T08:46:38;0.77;;;0.30;;
40459;SDS011;26164;51.138;16.952;2023-04-15T08:49:09;0.52;;;0.25;;
40459;SDS011;26164;51.138;16.952;2023-04-15T08:51:41;1.48;;;0.30;;
40459;SDS011;26164;51.138;16.952;2023-04-15T08:54:34;1.40;;;0.30;;
40459;SDS011;26164;51.138;16.952;2023-04-15T08:57:03;0.82;;;0.30;;
40459;SDS011;26164;51.138;16.952;2023-04-15T08:59:29;1.67;;;0.40;;
40459;SDS011;26164;51.138;16.952;2023-04-15T09:01:56;1.15;;;0.40;;
40459;SDS011;26164;51.138;16.952;2023-04-15T09:04:21;2.88;;;0.70;;
40459;SDS011;26164;51.138;16.952;2023-04-15T09:06:47;1.63;;;0.60;;
40459;SDS011;26164;51.138;16.952;2023-04-15T09:09:13;0.90;;;0.30;;
40459;SDS011;26164;51.138;16.952;2023-04-15T09:11:39;1.10;;;0.30;;
40459;SDS011;26164;51.138;16.952;2023-04-15T09:14:04;1.98;;;0.55;;
40459;SDS011;26164;51.138;16.952;2023-04-15T09:16:30;1.45;;;0.40;;
40459;SDS011;26164;51.138;16.952;2023-04-15T09:18:56;1.02;;;0.30;;
40459;SDS011;26164;51.138;16.952;2023-04-15T09:21:21;1.95;;;0.30;;
40459;SDS011;26164;51.138;16.952;2023-04-15T09:24:00;1.17;;;0.30;;
40459;SDS011;26164;51.138;16.952;2023-04-15T09:26:30;0.90;;;0.30;;
40459;SDS011;26164;51.138;16.952;2023-04-15T09:29:06;2.40;;;0.30;;
40459;SDS011;26164;51.138;16.952;2023-04-15T09:31:34;0.32;;;0.10;;
40459;SDS011;26164;51.138;16.952;2023-04-15T09:34:01;4.90;;;1.20;;
40459;SDS011;26164;51.138;16.952;2023-04-15T09:36:27;2.00;;;0.75;;
40459;SDS011;26164;51.138;16.952;2023-04-15T09:38:56;1.83;;;0.50;;
40459;SDS011;26164;51.138;16.952;2023-04-15T09:41:23;0.95;;;0.30;;
40459;SDS011;26164;51.138;16.952;2023-04-15T09:43:49;0.93;;;0.22;;
40459;SDS011;26164;51.138;16.952;2023-04-15T09:46:15;1.63;;;0.30;;
40459;SDS011;26164;51.138;16.952;2023-04-15T09:48:40;2.17;;;0.15;;
40459;SDS011;26164;51.138;16.952;2023-04-15T09:51:06;1.08;;;0.20;;
40459;SDS011;26164;51.138;16.952;2023-04-15T09:53:33;2.00;;;0.38;;
40459;SDS011;26164;51.138;16.952;2023-04-15T09:55:59;3.63;;;0.68;;
40459;SDS011;26164;51.138;16.952;2023-04-15T09:58:30;0.80;;;0.30;;
40459;SDS011;26164;51.138;16.952;2023-04-15T10:00:56;1.05;;;0.22;;
40459;SDS011;26164;51.138;16.952;2023-04-15T10:03:23;0.68;;;0.20;;
40459;SDS011;26164;51.138;16.952;2023-04-15T10:05:50;1.45;;;0.30;;
40459;SDS011;26164;51.138;16.952;2023-04-15T10:08:17;3.30;;;0.30;;
40459;SDS011;26164;51.138;16.952;2023-04-15T10:10:44;0.73;;;0.30;;
40459;SDS011;26164;51.138;16.952;2023-04-15T10:13:10;0.80;;;0.30;;
40459;SDS011;26164;51.138;16.952;2023-04-15T10:15:36;1.20;;;0.40;;
40459;SDS011;26164;51.138;16.952;2023-04-15T10:18:02;1.45;;;0.47;;
40459;SDS011;26164;51.138;16.952;2023-04-15T10:20:29;2.20;;;0.43;;
40459;SDS011;26164;51.138;16.952;2023-04-15T10:22:55;7.55;;;0.40;;
40459;SDS011;26164;51.138;16.952;2023-04-15T10:25:21;0.73;;;0.20;;
40459;SDS011;26164;51.138;16.952;2023-04-15T10:27:47;0.98;;;0.20;;
40459;SDS011;26164;51.138;16.952;2023-04-15T10:30:16;0.30;;;0.20;;
40459;SDS011;26164;51.138;16.952;2023-04-15T10:32:42;0.70;;;0.22;;
40459;SDS011;26164;51.138;16.952;2023-04-15T10:35:18;0.70;;;0.20;;
40459;SDS011;26164;51.138;16.952;2023-04-15T10:37:52;0.63;;;0.20;;
40459;SDS011;26164;51.138;16.952;2023-04-15T10:42:52;0.68;;;0.30;;
40459;SDS011;26164;51.138;16.952;2023-04-15T10:45:18;0.77;;;0.30;;
40459;SDS011;26164;51.138;16.952;2023-04-15T10:47:44;0.82;;;0.30;;
40459;SDS011;26164;51.138;16.952;2023-04-15T10:50:10;1.13;;;0.20;;
40459;SDS011;26164;51.138;16.952;2023-04-15T10:52:36;3.78;;;0.25;;
40459;SDS011;26164;51.138;16.952;2023-04-15T10:55:14;3.08;;;0.47;;
40459;SDS011;26164;51.138;16.952;2023-04-15T10:57:41;0.57;;;0.30;;
40459;SDS011;26164;51.138;16.952;2023-04-15T11:05:09;1.40;;;0.50;;
40459;SDS011;26164;51.138;16.952;2023-04-15T11:12:57;1.35;;;0.50;;
40459;SDS011;26164;51.138;16.952;2023-04-15T11:20:43;0.50;;;0.13;;
40459;SDS011;26164;51.138;16.952;2023-04-15T11:23:09;0.93;;;0.30;;
40459;SDS011;26164;51.138;16.952;2023-04-15T11:25:35;0.63;;;0.28;;
40459;SDS011;26164;51.138;16.952;2023-04-15T11:28:04;1.30;;;0.30;;
40459;SDS011;26164;51.138;16.952;2023-04-15T11:30:31;0.77;;;0.35;;
40459;SDS011;26164;51.138;16.952;2023-04-15T11:32:58;0.93;;;0.30;;
40459;SDS011;26164;51.138;16.952;2023-04-15T11:35:24;3.03;;;0.40;;
40459;SDS011;26164;51.138;16.952;2023-04-15T11:37:50;1.00;;;0.38;;
40459;SDS011;26164;51.138;16.952;2023-04-15T11:40:16;0.90;;;0.30;;
40459;SDS011;26164;51.138;16.952;2023-04-15T11:42:45;0.60;;;0.30;;
40459;SDS011;26164;51.138;16.952;2023-04-15T11:45:12;1.20;;;0.40;;
40459;SDS011;26164;51.138;16.952;2023-04-15T11:47:39;0.93;;;0.30;;
40459;SDS011;26164;51.138;16.952;2023-04-15T11:50:15;3.25;;;0.50;;
40459;SDS011;26164;51.138;16.952;2023-04-15T11:52:51;1.35;;;0.32;;
40459;SDS011;26164;51.138;16.952;2023-04-15T11:55:16;0.60;;;0.30;;
40459;SDS011;26164;51.138;16.952;2023-04-15T11:57:42;1.85;;;0.30;;
40459;SDS011;26164;51.138;16.952;2023-04-15T12:00:09;4.80;;;0.30;;
40459;SDS011;26164;51.138;16.952;2023-04-15T12:02:35;1.92;;;0.20;;
40459;SDS011;26164;51.138;16.952;2023-04-15T12:05:05;0.75;;;0.32;;
40459;SDS011;26164;51.138;16.952;2023-04-15T12:07:31;1.02;;;0.35;;
40459;SDS011;26164;51.138;16.952;2023-04-15T12:10:00;0.80;;;0.30;;
40459;SDS011;26164;51.138;16.952;2023-04-15T12:12:31;0.95;;;0.40;;
40459;SDS011;26164;51.138;16.952;2023-04-15T12:14:57;1.92;;;0.40;;
40459;SDS011;26164;51.138;16.952;2023-04-15T12:17:24;1.92;;;0.50;;
40459;SDS011;26164;51.138;16.952;2023-04-15T12:19:54;0.82;;;0.40;;
40459;SDS011;26164;51.138;16.952;2023-04-15T12:22:20;1.25;;;0.38;;
40459;SDS011;26164;51.138;16.952;2023-04-15T12:24:46;1.02;;;0.40;;
40459;SDS011;26164;51.138;16.952;2023-04-15T12:27:14;0.80;;;0.40;;
40459;SDS011;26164;51.138;16.952;2023-04-15T12:29:40;0.90;;;0.40;;
40459;SDS011;26164;51.138;16.952;2023-04-15T12:32:11;2.78;;;0.50;;
40459;SDS011;26164;51.138;16.952;2023-04-15T12:34:38;0.70;;;0.40;;
40459;SDS011;26164;51.138;16.952;2023-04-15T12:37:05;2.95;;;0.40;;
40459;SDS011;26164;51.138;16.952;2023-04-15T12:39:34;1.55;;;0.68;;
40459;SDS011;26164;51.138;16.952;2023-04-15T12:42:00;0.73;;;0.35;;
40459;SDS011;26164;51.138;16.952;2023-04-15T12:44:26;0.95;;;0.40;;
40459;SDS011;26164;51.138;16.952;2023-04-15T12:46:52;3.17;;;0.70;;
40459;SDS011;26164;51.138;16.952;2023-04-15T12:49:20;2.10;;;0.52;;
40459;SDS011;26164;51.138;16.952;2023-04-15T12:51:50;0.65;;;0.30;;
40459;SDS011;26164;51.138;16.952;2023-04-15T12:54:16;1.00;;;0.30;;
40459;SDS011;26164;51.138;16.952;2023-04-15T12:56:46;1.00;;;0.47;;
40459;SDS011;26164;51.138;16.952;2023-04-15T12:59:12;1.67;;;0.40;;
40459;SDS011;26164;51.138;16.952;2023-04-15T13:01:38;0.80;;;0.40;;
40459;SDS011;26164;51.138;16.952;2023-04-15T13:04:04;0.90;;;0.47;;
40459;SDS011;26164;51.138;16.952;2023-04-15T13:06:31;1.10;;;0.45;;
40459;SDS011;26164;51.138;16.952;2023-04-15T13:08:59;0.70;;;0.30;;
40459;SDS011;26164;51.138;16.952;2023-04-15T13:11:26;0.77;;;0.30;;
40459;SDS011;26164;51.138;16.952;2023-04-15T13:13:53;1.80;;;0.40;;
40459;SDS011;26164;51.138;16.952;2023-04-15T13:16:20;1.48;;;0.55;;
40459;SDS011;26164;51.138;16.952;2023-04-15T13:18:47;1.10;;;0.40;;
40459;SDS011;26164;51.138;16.952;2023-04-15T13:21:13;0.98;;;0.30;;
40459;SDS011;26164;51.138;16.952;2023-04-15T13:23:40;0.55;;;0.30;;
40459;SDS011;26164;51.138;16.952;2023-04-15T13:26:06;0.63;;;0.30;;
40459;SDS011;26164;51.138;16.952;2023-04-15T13:28:31;0.47;;;0.22;;
40459;SDS011;26164;51.138;16.952;2023-04-15T13:30:57;0.73;;;0.32;;
40459;SDS011;26164;51.138;16.952;2023-04-15T13:33:24;2.17;;;1.27;;
40459;SDS011;26164;51.138;16.952;2023-04-15T13:35:53;0.85;;;0.40;;
40459;SDS011;26164;51.138;16.952;2023-04-15T13:38:19;0.70;;;0.35;;
40459;SDS011;26164;51.138;16.952;2023-04-15T13:40:45;0.60;;;0.30;;
40459;SDS011;26164;51.138;16.952;2023-04-15T13:43:11;0.93;;;0.30;;
40459;SDS011;26164;51.138;16.952;2023-04-15T13:45:37;0.55;;;0.30;;
40459;SDS011;26164;51.138;16.952;2023-04-15T13:48:03;1.27;;;0.20;;
40459;SDS011;26164;51.138;16.952;2023-04-15T13:50:29;1.08;;;0.32;;
40459;SDS011;26164;51.138;16.952;2023-04-15T13:52:54;0.68;;;0.30;;
40459;SDS011;26164;51.138;16.952;2023-04-15T13:55:24;0.90;;;0.20;;
40459;SDS011;26164;51.138;16.952;2023-04-15T13:57:53;1.30;;;0.50;;
40459;SDS011;26164;51.138;16.952;2023-04-15T14:00:38;1.63;;;0.30;;
40459;SDS011;26164;51.138;16.952;2023-04-15T14:03:04;2.35;;;0.30;;
40459;SDS011;26164;51.138;16.952;2023-04-15T14:05:32;1.33;;;0.40;;
40459;SDS011;26164;51.138;16.952;2023-04-15T14:07:58;0.50;;;0.30;;
40459;SDS011;26164;51.138;16.952;2023-04-15T14:10:24;0.70;;;0.30;;
40459;SDS011;26164;51.138;16.952;2023-04-15T14:12:50;1.88;;;0.32;;
40459;SDS011;26164;51.138;16.952;2023-04-15T14:15:15;0.80;;;0.30;;
40459;SDS011;26164;51.138;16.952;2023-04-15T14:17:41;0.75;;;0.30;;
40459;SDS011;26164;51.138;16.952;2023-04-15T14:20:07;1.55;;;0.52;;
40459;SDS011;26164;51.138;16.952;2023-04-15T14:22:34;2.40;;;0.32;;
40459;SDS011;26164;51.138;16.952;2023-04-15T14:24:59;1.27;;;0.30;;
40459;SDS011;26164;51.138;16.952;2023-04-15T14:27:26;2.83;;;0.40;;
40459;SDS011;26164;51.138;16.952;2023-04-15T14:29:52;0.73;;;0.30;;
40459;SDS011;26164;51.138;16.952;2023-04-15T14:32:19;0.75;;;0.30;;
40459;SDS011;26164;51.138;16.952;2023-04-15T14:34:44;0.70;;;0.20;;
40459;SDS011;26164;51.138;16.952;2023-04-15T14:37:10;2.63;;;0.40;;
40459;SDS011;26164;51.138;16.952;2023-04-15T14:39:36;2.63;;;0.40;;
40459;SDS011;26164;51.138;16.952;2023-04-15T14:42:02;1.25;;;0.30;;
40459;SDS011;26164;51.138;16.952;2023-04-15T14:44:27;1.08;;;0.40;;
40459;SDS011;26164;51.138;16.952;2023-04-15T14:46:54;1.60;;;0.52;;
40459;SDS011;26164;51.138;16.952;2023-04-15T14:49:20;1.40;;;0.50;;
40459;SDS011;26164;51.138;16.952;2023-04-15T14:51:46;1.50;;;0.45;;
40459;SDS011;26164;51.138;16.952;2023-04-15T14:54:11;1.08;;;0.40;;
40459;SDS011;26164;51.138;16.952;2023-04-15T14:56:37;1.02;;;0.50;;
40459;SDS011;26164;51.138;16.952;2023-04-15T14:59:03;1.77;;;0.45;;
40459;SDS011;26164;51.138;16.952;2023-04-15T15:01:29;1.90;;;0.50;;
40459;SDS011;26164;51.138;16.952;2023-04-15T15:03:54;1.05;;;0.40;;